Time;durP1;ratioP1;P1;durP2;ratioP2;P2;SDS_P1;SDS_P2;PMS_P1;PMS_P2;Temp;Humidity;BMP_temperature;BMP_pressure;BME280_temperature;BME280_humidity;BME280_pressure;Samples;Min_cycle;Max_cycle;Signal;HPM_P1;HPM_P2
2021/04/25 00:02:18;;;;;;;7.32;2.28;;;;;;;3.85;60.53;101624.16;5003017;28;20064;-71
2021/04/25 00:04:45;;;;;;;5.63;1.98;;;;;;;3.84;60.54;101618.09;5038259;28;20084;-69
2021/04/25 00:07:11;;;;;;;6.38;1.90;;;;;;;3.64;60.53;101614.91;5041541;28;20469;-71
2021/04/25 00:09:38;;;;;;;9.52;2.28;;;;;;;3.67;59.25;101620.94;5016685;28;20053;-70
2021/04/25 00:12:05;;;;;;;5.60;1.90;;;;;;;3.62;59.39;101616.69;5013980;28;20043;-70
2021/04/25 00:14:32;;;;;;;4.60;2.03;;;;;;;3.69;59.75;101610.47;5033509;28;20061;-71
2021/04/25 00:16:59;;;;;;;4.28;2.22;;;;;;;3.88;60.03;101611.94;5015652;28;20042;-70
2021/04/25 00:19:26;;;;;;;6.15;2.17;;;;;;;3.91;59.78;101611.88;5035199;28;20129;-71
2021/04/25 00:21:53;;;;;;;6.15;2.25;;;;;;;3.65;60.21;101609.69;5018132;28;20048;-72
2021/04/25 00:24:20;;;;;;;8.63;2.30;;;;;;;3.64;61.74;101605.34;5033316;28;20049;-71
2021/04/25 00:26:47;;;;;;;6.50;2.30;;;;;;;4.10;60.10;101602.03;5017327;28;20057;-71
2021/04/25 00:29:14;;;;;;;5.53;2.22;;;;;;;3.97;60.50;101603.13;5037643;28;20140;-72
2021/04/25 00:31:40;;;;;;;6.18;2.10;;;;;;;3.76;60.69;101606.91;5016750;28;20695;-72
2021/04/25 00:34:07;;;;;;;6.68;2.05;;;;;;;3.67;60.29;101605.31;5025954;28;20764;-72
2021/04/25 00:36:34;;;;;;;3.85;1.65;;;;;;;3.70;59.76;101601.81;5020218;28;20414;-69
2021/04/25 00:39:02;;;;;;;4.43;1.75;;;;;;;4.26;59.99;101587.84;5030393;28;20106;-73
2021/04/25 00:41:29;;;;;;;6.47;1.90;;;;;;;4.41;58.06;101591.94;4997406;28;20892;-71
2021/04/25 00:43:56;;;;;;;4.50;2.00;;;;;;;4.22;57.42;101595.75;5015396;28;20481;-71
2021/04/25 00:46:23;;;;;;;3.45;1.83;;;;;;;4.19;57.36;101594.06;5034694;28;20073;-72
2021/04/25 00:48:51;;;;;;;8.43;1.77;;;;;;;4.29;56.62;101590.41;5028450;28;20132;-70
2021/04/25 00:51:22;;;;;;;4.28;1.70;;;;;;;4.38;57.07;101578.97;5020404;28;20148;-70
2021/04/25 00:53:49;;;;;;;7.35;2.25;;;;;;;4.20;57.21;101590.56;5001645;28;20060;-71
2021/04/25 00:56:16;;;;;;;5.65;1.83;;;;;;;4.10;57.05;101593.34;5023155;28;20106;-71
2021/04/25 00:58:43;;;;;;;6.70;2.33;;;;;;;4.36;58.51;101585.09;5005771;28;20076;-72
2021/04/25 01:01:10;;;;;;;3.30;1.65;;;;;;;4.56;58.65;101583.00;5025586;28;20045;-71
2021/04/25 01:03:37;;;;;;;7.55;1.65;;;;;;;4.68;56.56;101569.69;5032967;28;20083;-71
2021/04/25 01:06:03;;;;;;;6.88;1.60;;;;;;;4.95;57.33;101581.31;5034638;28;20108;-70
2021/04/25 01:08:30;;;;;;;4.43;1.95;;;;;;;4.83;57.17;101576.38;5025450;28;20073;-71
2021/04/25 01:10:57;;;;;;;3.88;1.70;;;;;;;4.55;56.26;101582.13;5025995;28;20124;-72
2021/04/25 01:13:23;;;;;;;3.83;2.00;;;;;;;4.62;56.98;101569.81;5031878;28;20096;-70
2021/04/25 01:15:50;;;;;;;4.82;1.85;;;;;;;4.86;56.30;101568.47;5003223;28;20132;-70
2021/04/25 01:18:17;;;;;;;5.05;1.92;;;;;;;4.64;55.93;101564.56;5016398;28;20129;-70
2021/04/25 01:20:44;;;;;;;3.88;1.50;;;;;;;4.48;57.28;101569.22;5020084;28;20083;-70
2021/04/25 01:23:10;;;;;;;4.70;1.85;;;;;;;4.34;57.05;101571.22;4999232;28;20046;-71
2021/04/25 01:25:37;;;;;;;4.60;1.88;;;;;;;4.29;58.31;101569.56;5029023;22;20048;-71
2021/04/25 01:28:04;;;;;;;5.63;1.90;;;;;;;4.74;57.99;101564.38;5022969;28;20121;-70
2021/04/25 01:30:32;;;;;;;4.53;2.17;;;;;;;4.87;56.33;101565.00;5025932;28;20157;-70
2021/04/25 01:32:59;;;;;;;5.70;2.33;;;;;;;5.20;57.12;101566.03;5032973;28;20045;-70
2021/04/25 01:35:27;;;;;;;3.80;1.73;;;;;;;4.91;57.07;101570.97;5028050;28;20051;-70
2021/04/25 01:37:57;;;;;;;4.93;1.73;;;;;;;4.77;56.33;101566.03;5022167;28;20049;-71
2021/04/25 01:40:26;;;;;;;4.07;1.70;;;;;;;4.62;57.37;101564.59;5023243;28;20713;-71
2021/04/25 01:42:53;;;;;;;5.53;1.77;;;;;;;4.74;58.07;101564.38;5023110;28;20187;-71
2021/04/25 01:45:21;;;;;;;5.20;2.05;;;;;;;4.96;57.25;101562.19;5018548;28;20500;-70
2021/04/25 01:47:54;;;;;;;5.70;1.90;;;;;;;4.98;56.38;101560.41;5003622;28;20503;-71
2021/04/25 01:50:22;;;;;;;4.90;1.85;;;;;;;5.13;56.20;101563.56;5042342;28;20037;-70
2021/04/25 01:52:49;;;;;;;5.45;1.95;;;;;;;5.33;56.04;101557.03;5015787;28;20056;-70
2021/04/25 01:55:17;;;;;;;7.00;2.10;;;;;;;5.50;56.15;101556.66;5023680;28;20057;-71
2021/04/25 01:57:44;;;;;;;3.85;1.70;;;;;;;5.54;54.99;101555.69;5020682;28;20463;-69
2021/04/25 02:00:14;;;;;;;6.88;2.05;;;;;;;5.53;54.80;101555.72;5004469;28;20055;-70
2021/04/25 02:02:43;;;;;;;4.82;1.90;;;;;;;5.30;55.32;101561.47;5028289;28;20466;-70
2021/04/25 02:05:10;;;;;;;6.65;2.10;;;;;;;5.06;57.28;101563.72;5016550;28;20112;-71
2021/04/25 02:07:37;;;;;;;6.70;1.95;;;;;;;4.94;56.81;101563.09;5012219;28;20146;-71
2021/04/25 02:10:06;;;;;;;5.28;1.95;;;;;;;5.08;56.42;101561.06;5002876;28;20112;-70
2021/04/25 02:12:33;;;;;;;3.58;2.00;;;;;;;5.38;56.81;101562.16;5021684;28;20155;-72
2021/04/25 02:14:59;;;;;;;6.32;1.95;;;;;;;5.39;56.35;101560.41;5006439;28;20100;-70
2021/04/25 02:17:26;;;;;;;4.47;1.88;;;;;;;5.32;55.93;101563.16;5036223;28;20167;-71
2021/04/25 02:19:53;;;;;;;3.17;1.40;;;;;;;5.55;55.74;101564.38;5035547;28;20086;-71
2021/04/25 02:22:20;;;;;;;6.72;1.67;;;;;;;5.47;55.19;101561.09;5017577;28;20454;-71
2021/04/25 02:24:47;;;;;;;5.45;2.20;;;;;;;5.31;55.58;101557.94;5018791;28;20112;-71
2021/04/25 02:27:13;;;;;;;3.70;1.92;;;;;;;5.29;56.12;101557.13;4997437;28;20135;-70
2021/04/25 02:29:40;;;;;;;6.20;2.05;;;;;;;5.58;56.07;101556.47;5017145;28;20060;-72
2021/04/25 02:32:07;;;;;;;4.95;1.98;;;;;;;5.46;56.31;101557.63;5020152;28;20059;-72
2021/04/25 02:34:33;;;;;;;4.88;2.10;;;;;;;5.16;56.34;101558.28;5013270;28;20411;-71
2021/04/25 02:37:00;;;;;;;2.72;1.63;;;;;;;5.19;56.27;101555.63;5020326;28;20470;-71
2021/04/25 02:39:27;;;;;;;4.57;1.80;;;;;;;5.07;56.21;101559.34;5004879;28;20159;-70
2021/04/25 02:41:53;;;;;;;3.20;1.50;;;;;;;4.82;56.99;101554.66;5021369;28;20428;-72
2021/04/25 02:44:20;;;;;;;4.65;1.90;;;;;;;4.56;57.57;101549.94;5002906;28;20428;-71
2021/04/25 02:46:47;;;;;;;4.03;1.92;;;;;;;4.57;57.60;101549.03;5030825;28;20068;-72
2021/04/25 02:49:14;;;;;;;9.90;1.67;;;;;;;4.51;57.49;101546.56;5026736;28;20132;-71
2021/04/25 02:51:41;;;;;;;6.80;1.70;;;;;;;4.71;58.30;101558.34;5012014;28;20076;-71
2021/04/25 02:54:07;;;;;;;8.07;2.03;;;;;;;4.48;58.72;101544.00;5041724;28;20141;-70
2021/04/25 02:56:34;;;;;;;7.35;2.05;;;;;;;4.40;58.60;101545.03;5033737;28;20057;-71
2021/04/25 02:59:01;;;;;;;3.95;1.88;;;;;;;4.52;59.20;101542.22;5010466;28;20103;-70
2021/04/25 03:01:31;;;;;;;4.68;1.80;;;;;;;4.48;58.83;101537.94;5040449;28;20558;-70
2021/04/25 03:03:58;;;;;;;5.38;1.63;;;;;;;4.03;58.91;101549.16;5020623;28;20132;-71
2021/04/25 03:06:24;;;;;;;4.43;2.13;;;;;;;3.67;60.16;101549.75;5016373;28;20052;-70
2021/04/25 03:08:51;;;;;;;3.33;1.75;;;;;;;3.74;60.72;101554.88;5023222;28;20073;-71
2021/04/25 03:11:18;;;;;;;6.38;1.50;;;;;;;4.22;60.32;101546.22;5031747;28;20161;-70
2021/04/25 03:13:45;;;;;;;5.55;2.10;;;;;;;4.22;59.08;101548.84;5003138;28;20053;-69
2021/04/25 03:16:12;;;;;;;5.93;1.60;;;;;;;3.94;60.83;101557.13;5023314;28;20096;-70
2021/04/25 03:18:39;;;;;;;2.50;1.13;;;;;;;3.73;60.61;101558.34;5019107;28;20075;-69
2021/04/25 03:21:06;;;;;;;4.63;1.98;;;;;;;3.55;60.57;101548.19;5035331;28;20537;-71
2021/04/25 03:23:32;;;;;;;6.55;1.90;;;;;;;3.35;61.70;101547.66;5034046;28;20053;-69
2021/04/25 03:26:00;;;;;;;4.95;2.10;;;;;;;3.27;61.52;101558.16;5035917;28;20139;-70
2021/04/25 03:28:26;;;;;;;4.05;1.95;;;;;;;3.25;61.54;101560.78;5025300;28;20052;-70
2021/04/25 03:30:54;;;;;;;6.25;2.05;;;;;;;3.28;61.74;101554.66;5041264;28;20083;-70
2021/04/25 03:33:22;;;;;;;11.48;2.65;;;;;;;3.39;61.67;101555.38;5039463;28;20139;-69
2021/04/25 03:35:49;;;;;;;8.68;2.33;;;;;;;3.69;60.53;101561.00;5010508;28;20049;-70
2021/04/25 03:38:16;;;;;;;5.47;3.03;;;;;;;3.88;60.67;101557.25;5022299;28;20046;-69
2021/04/25 03:40:43;;;;;;;6.53;2.65;;;;;;;4.03;60.07;101561.34;4991666;28;20059;-71
2021/04/25 03:43:09;;;;;;;6.70;2.83;;;;;;;4.06;61.05;101569.09;5011506;28;20080;-72
2021/04/25 03:45:36;;;;;;;13.30;2.67;;;;;;;4.25;61.48;101567.91;5045850;28;20117;-70
2021/04/25 03:48:03;;;;;;;7.82;3.28;;;;;;;4.00;62.42;101567.44;5002338;28;20565;-71
2021/04/25 03:50:30;;;;;;;14.48;4.18;;;;;;;3.87;63.26;101571.13;5024702;28;20061;-71
2021/04/25 03:52:57;;;;;;;9.90;4.50;;;;;;;3.87;63.69;101567.66;5036986;28;20416;-68
2021/04/25 03:55:24;;;;;;;8.18;4.50;;;;;;;3.76;63.75;101571.31;5002489;28;20148;-69
2021/04/25 03:57:51;;;;;;;8.38;4.22;;;;;;;3.82;63.65;101570.34;5012137;28;20132;-70
2021/04/25 04:00:19;;;;;;;9.70;4.63;;;;;;;3.59;63.79;101578.50;5054813;28;20045;-70
2021/04/25 04:02:45;;;;;;;8.07;4.10;;;;;;;3.52;64.89;101564.75;5032671;28;20474;-70
2021/04/25 04:05:13;;;;;;;8.20;3.70;;;;;;;3.45;64.74;101570.91;5016023;28;20069;-71
2021/04/25 04:07:39;;;;;;;8.23;4.57;;;;;;;3.48;64.88;101573.47;5044881;28;20595;-69
2021/04/25 04:10:07;;;;;;;7.03;3.42;;;;;;;3.37;64.18;101569.28;5029552;28;20080;-69
2021/04/25 04:12:34;;;;;;;8.50;3.85;;;;;;;3.30;64.19;101568.53;5004613;28;20083;-70
2021/04/25 04:15:00;;;;;;;6.53;3.50;;;;;;;3.31;64.06;101572.84;5036361;28;20069;-70
2021/04/25 04:17:27;;;;;;;5.53;3.30;;;;;;;3.41;64.04;101571.84;5028235;28;20041;-71
2021/04/25 04:19:54;;;;;;;9.30;3.70;;;;;;;3.40;64.20;101570.13;5023761;28;20583;-69
2021/04/25 04:22:20;;;;;;;6.10;3.45;;;;;;;3.49;64.47;101569.13;5044423;28;20088;-71
2021/04/25 04:24:47;;;;;;;8.60;3.75;;;;;;;3.42;64.12;101570.97;5026402;28;20121;-70
2021/04/25 04:27:14;;;;;;;9.15;3.17;;;;;;;3.38;64.58;101577.09;5032428;28;20076;-72
2021/04/25 04:29:40;;;;;;;6.88;3.00;;;;;;;3.33;64.53;101578.88;5010318;28;20136;-70
2021/04/25 04:32:07;;;;;;;5.00;2.88;;;;;;;3.54;64.34;101577.72;5038113;28;20535;-70
2021/04/25 04:34:36;;;;;;;7.10;3.20;;;;;;;3.54;64.02;101575.97;5019783;28;20618;-71
2021/04/25 04:37:03;;;;;;;9.07;3.67;;;;;;;3.59;64.02;101580.25;5038879;28;20124;-70
2021/04/25 04:39:30;;;;;;;6.80;3.40;;;;;;;3.55;64.13;101584.66;5011876;28;20426;-70
2021/04/25 04:41:57;;;;;;;11.65;3.60;;;;;;;3.55;64.23;101580.28;5016334;28;20077;-69
2021/04/25 04:44:24;;;;;;;8.32;3.53;;;;;;;3.65;64.57;101588.84;5008978;28;20080;-70
2021/04/25 04:46:50;;;;;;;7.10;3.40;;;;;;;3.81;63.74;101577.31;5025500;28;20147;-69
2021/04/25 04:49:17;;;;;;;9.38;3.65;;;;;;;3.97;63.31;101580.53;5010179;28;20456;-70
2021/04/25 04:51:44;;;;;;;10.10;4.00;;;;;;;3.98;63.57;101581.41;5003432;28;20060;-70
2021/04/25 04:54:11;;;;;;;7.82;3.35;;;;;;;4.18;63.49;101574.09;5030458;28;20173;-69
2021/04/25 04:56:38;;;;;;;8.50;3.60;;;;;;;4.25;62.24;101582.69;5025876;28;20140;-71
2021/04/25 04:59:06;;;;;;;10.10;4.53;;;;;;;4.17;62.87;101584.56;5008965;28;20041;-71
2021/04/25 05:01:34;;;;;;;6.28;3.45;;;;;;;4.23;62.57;101582.72;5009847;28;20064;-70
2021/04/25 05:04:00;;;;;;;12.85;4.30;;;;;;;4.50;61.76;101581.38;5028461;28;20053;-69
2021/04/25 05:06:27;;;;;;;8.65;3.35;;;;;;;4.59;61.55;101577.69;4995962;28;20199;-71
2021/04/25 05:08:54;;;;;;;14.05;3.30;;;;;;;4.73;60.77;101577.47;5008595;28;20542;-70
2021/04/25 05:11:21;;;;;;;9.90;3.40;;;;;;;4.76;60.93;101579.97;5038011;28;20483;-70
2021/04/25 05:13:48;;;;;;;9.75;3.40;;;;;;;4.81;60.15;101580.75;5018258;28;20140;-72
2021/04/25 05:16:15;;;;;;;6.60;3.08;;;;;;;4.63;61.32;101583.72;5016191;28;20164;-70
2021/04/25 05:18:42;;;;;;;9.18;3.65;;;;;;;4.72;60.90;101580.94;5021072;28;20056;-71
2021/04/25 05:21:09;;;;;;;7.13;3.15;;;;;;;4.77;59.72;101582.59;5041040;28;20076;-70
2021/04/25 05:23:36;;;;;;;9.48;3.47;;;;;;;4.84;59.69;101585.91;5005361;28;20056;-71
2021/04/25 05:26:03;;;;;;;9.35;3.38;;;;;;;4.97;59.44;101586.53;5015207;28;20495;-70
2021/04/25 05:28:30;;;;;;;8.50;2.80;;;;;;;4.78;59.15;101575.63;5022585;28;20079;-70
2021/04/25 05:30:58;;;;;;;8.77;3.38;;;;;;;5.12;58.39;101575.75;5006401;28;20176;-70
2021/04/25 05:33:25;;;;;;;10.02;3.90;;;;;;;5.24;58.93;101578.13;5020539;28;20090;-70
2021/04/25 05:35:53;;;;;;;6.65;2.92;;;;;;;5.49;57.94;101578.47;5013387;28;20124;-70
2021/04/25 05:38:20;;;;;;;6.28;3.00;;;;;;;5.17;58.33;101580.88;5041047;28;20029;-70
2021/04/25 05:40:46;;;;;;;8.23;3.38;;;;;;;5.29;58.24;101578.03;5033578;28;20041;-69
2021/04/25 05:43:13;;;;;;;7.85;3.22;;;;;;;5.25;58.84;101573.75;5044185;28;20438;-69
2021/04/25 05:45:40;;;;;;;6.25;3.25;;;;;;;5.24;58.41;101583.34;5033528;28;20219;-70
2021/04/25 05:48:06;;;;;;;6.75;3.03;;;;;;;5.32;57.99;101589.25;5032729;28;20709;-70
2021/04/25 05:50:34;;;;;;;7.70;3.03;;;;;;;5.37;57.24;101577.88;5009272;28;20053;-70
2021/04/25 05:53:01;;;;;;;11.15;3.58;;;;;;;5.23;56.78;101588.59;5025196;28;20065;-70
2021/04/25 05:55:28;;;;;;;5.72;3.05;;;;;;;5.44;56.35;101593.34;5014489;28;20076;-70
2021/04/25 05:57:55;;;;;;;6.07;3.05;;;;;;;5.49;56.58;101586.28;5052102;28;20056;-71
2021/04/25 06:00:24;;;;;;;9.18;3.15;;;;;;;5.58;56.35;101591.31;5045874;28;20034;-70
2021/04/25 06:02:52;;;;;;;6.30;2.90;;;;;;;5.74;55.15;101583.94;5028035;28;20120;-70
2021/04/25 06:05:18;;;;;;;11.52;3.28;;;;;;;5.84;54.31;101588.06;5021465;28;20056;-69
2021/04/25 06:07:45;;;;;;;8.98;3.00;;;;;;;5.81;54.16;101587.31;4992729;28;20069;-70
2021/04/25 06:10:12;;;;;;;7.45;3.08;;;;;;;6.12;53.52;101590.03;5004148;28;20529;-70
2021/04/25 06:12:39;;;;;;;6.35;3.35;;;;;;;6.26;53.76;101592.28;5015232;28;20136;-71
2021/04/25 06:15:06;;;;;;;6.72;2.65;;;;;;;6.69;52.32;101578.94;5012616;28;20037;-70
2021/04/25 06:17:34;;;;;;;5.93;2.78;;;;;;;7.23;50.92;101591.34;5004746;28;20230;-70
2021/04/25 06:20:01;;;;;;;6.97;2.70;;;;;;;6.58;50.22;101591.47;5004070;28;20438;-71
2021/04/25 06:22:28;;;;;;;5.68;2.38;;;;;;;6.48;50.97;101597.81;5039010;28;20455;-71
2021/04/25 06:24:55;;;;;;;10.70;2.40;;;;;;;6.82;50.51;101596.03;5044182;28;20057;-71
2021/04/25 06:27:22;;;;;;;6.75;2.47;;;;;;;7.10;49.54;101590.00;5024121;28;20041;-70
2021/04/25 06:29:49;;;;;;;7.40;2.00;;;;;;;7.40;48.66;101597.88;5017110;28;20072;-71
2021/04/25 06:32:15;;;;;;;7.55;2.53;;;;;;;7.02;48.69;101590.22;5030807;28;20451;-71
2021/04/25 06:34:42;;;;;;;5.35;2.10;;;;;;;7.01;48.98;101598.13;5016448;28;20455;-69
2021/04/25 06:37:09;;;;;;;5.90;2.00;;;;;;;7.25;48.85;101596.53;5032657;28;20124;-72
2021/04/25 06:39:36;;;;;;;5.90;2.38;;;;;;;7.58;47.51;101590.31;5028751;28;20063;-70
2021/04/25 06:42:03;;;;;;;7.60;2.15;;;;;;;7.85;46.91;101599.06;5026225;28;20112;-69
2021/04/25 06:44:29;;;;;;;4.60;2.13;;;;;;;8.07;46.92;101596.59;5022042;28;20216;-70
2021/04/25 06:46:56;;;;;;;4.53;2.20;;;;;;;7.57;46.42;101599.06;5019020;28;20079;-71
2021/04/25 06:49:23;;;;;;;3.90;1.83;;;;;;;7.24;46.46;101602.69;5009960;28;20076;-71
2021/04/25 06:51:50;;;;;;;6.05;1.90;;;;;;;7.45;46.16;101611.69;5037306;28;20131;-70
2021/04/25 06:54:16;;;;;;;6.57;2.65;;;;;;;7.50;46.16;101613.25;5003677;28;20041;-71
2021/04/25 06:56:43;;;;;;;11.68;2.17;;;;;;;8.08;44.91;101614.03;5030116;28;20061;-71
2021/04/25 06:59:10;;;;;;;5.25;2.03;;;;;;;8.41;44.65;101592.00;5044790;28;20813;-72
2021/04/25 07:01:37;;;;;;;4.35;2.17;;;;;;;8.96;43.20;101605.78;5024335;28;20076;-71
2021/04/25 07:04:04;;;;;;;4.53;2.50;;;;;;;9.15;42.42;101614.72;4999591;28;20053;-71
2021/04/25 07:06:31;;;;;;;5.78;1.95;;;;;;;9.05;42.93;101611.59;5005084;28;20107;-72
2021/04/25 07:08:58;;;;;;;4.45;1.70;;;;;;;8.85;42.82;101608.81;4998381;28;20384;-70
2021/04/25 07:11:25;;;;;;;4.47;2.63;;;;;;;9.15;42.57;101611.25;5002971;28;20051;-72
2021/04/25 07:13:52;;;;;;;6.10;2.00;;;;;;;9.04;42.55;101609.84;5030952;28;20531;-71
2021/04/25 07:16:19;;;;;;;6.45;1.95;;;;;;;9.35;44.59;101608.72;5026334;28;20363;-71
2021/04/25 07:18:46;;;;;;;8.30;1.85;;;;;;;8.63;43.22;101609.56;5026181;28;20171;-71
2021/04/25 07:21:13;;;;;;;5.70;2.08;;;;;;;8.71;42.92;101611.94;5049053;28;20072;-70
2021/04/25 07:23:40;;;;;;;6.05;1.67;;;;;;;8.78;43.14;101612.56;5008909;28;20136;-72
2021/04/25 07:26:08;;;;;;;6.47;2.25;;;;;;;8.68;43.02;101612.03;5034055;28;20052;-71
2021/04/25 07:28:39;;;;;;;3.58;1.65;;;;;;;8.70;42.14;101610.22;5037553;28;20072;-72
2021/04/25 07:31:06;;;;;;;5.40;1.90;;;;;;;8.84;42.15;101612.34;5013258;28;20057;-72
2021/04/25 07:33:33;;;;;;;7.53;1.50;;;;;;;8.52;41.93;101613.50;5029498;28;20053;-70
2021/04/25 07:36:00;;;;;;;8.13;1.83;;;;;;;8.48;41.69;101625.00;5031586;28;20128;-72
2021/04/25 07:38:27;;;;;;;6.72;1.85;;;;;;;8.12;42.90;101623.53;5021831;28;20199;-72
2021/04/25 07:40:54;;;;;;;3.40;1.85;;;;;;;8.55;41.28;101622.09;5031402;28;20140;-70
2021/04/25 07:43:20;;;;;;;6.38;1.98;;;;;;;8.73;41.37;101622.38;5052065;28;20112;-71
2021/04/25 07:45:47;;;;;;;8.32;2.42;;;;;;;8.47;41.81;101625.94;5015638;28;20499;-70
2021/04/25 07:48:14;;;;;;;5.85;1.70;;;;;;;7.75;42.85;101636.09;5030084;28;20053;-71
2021/04/25 07:50:40;;;;;;;3.45;1.65;;;;;;;8.31;42.07;101630.78;5035128;28;20067;-71
2021/04/25 07:53:07;;;;;;;4.60;1.38;;;;;;;8.24;42.21;101632.78;5065935;22;20041;-71
2021/04/25 07:55:34;;;;;;;4.65;1.63;;;;;;;8.31;42.24;101638.66;5006962;28;20702;-72
2021/04/25 07:58:01;;;;;;;4.68;1.60;;;;;;;8.33;41.97;101635.09;5028537;28;20128;-72
2021/04/25 08:00:27;;;;;;;4.93;1.92;;;;;;;9.12;40.61;101633.22;4996363;28;20042;-71
2021/04/25 08:02:54;;;;;;;3.45;1.35;;;;;;;8.96;39.31;101627.69;4994392;28;20132;-73
2021/04/25 08:05:21;;;;;;;4.32;1.40;;;;;;;8.17;39.81;101646.97;5031757;28;20046;-71
2021/04/25 08:07:47;;;;;;;4.20;1.38;;;;;;;8.24;40.43;101638.00;5009942;28;20053;-71
2021/04/25 08:10:16;;;;;;;7.07;1.77;;;;;;;8.08;41.99;101645.50;5010569;28;20395;-72
2021/04/25 08:12:43;;;;;;;4.70;1.55;;;;;;;7.93;40.21;101653.03;5013674;28;20077;-71
2021/04/25 08:15:13;;;;;;;2.63;1.10;;;;;;;8.27;39.86;101653.63;5008950;28;20052;-73
2021/04/25 08:17:40;;;;;;;4.10;1.40;;;;;;;8.31;40.59;101649.16;5010635;28;20180;-71
2021/04/25 08:20:07;;;;;;;5.35;1.75;;;;;;;8.44;41.50;101652.25;5011945;28;20136;-71
2021/04/25 08:22:34;;;;;;;4.75;1.33;;;;;;;8.56;42.19;101659.72;5009526;28;20069;-72
2021/04/25 08:25:02;;;;;;;5.30;1.40;;;;;;;8.17;44.40;101656.63;4994520;28;20199;-72
2021/04/25 08:27:28;;;;;;;5.40;1.60;;;;;;;7.87;45.94;101660.16;5028109;28;20049;-71
2021/04/25 08:29:55;;;;;;;3.22;1.60;;;;;;;7.67;47.41;101672.16;4994467;28;20053;-71
2021/04/25 08:32:22;;;;;;;4.18;1.45;;;;;;;7.14;49.06;101661.47;5003809;28;20034;-71
2021/04/25 08:34:49;;;;;;;4.85;1.75;;;;;;;7.12;50.08;101679.00;5010776;28;20061;-71
2021/04/25 08:37:15;;;;;;;5.55;1.80;;;;;;;6.69;52.05;101685.38;4999239;28;20082;-70
2021/04/25 08:39:42;;;;;;;5.78;1.67;;;;;;;6.61;53.20;101696.03;4992207;28;20053;-70
2021/04/25 08:42:13;;;;;;;6.45;2.88;;;;;;;6.68;54.37;101681.91;4990321;28;20046;-71
2021/04/25 08:44:42;;;;;;;4.97;1.92;;;;;;;6.94;54.39;101682.97;4976317;28;20064;-71
2021/04/25 08:47:09;;;;;;;5.25;1.40;;;;;;;7.42;53.55;101687.75;4986778;28;20050;-71
2021/04/25 08:49:41;;;;;;;4.40;1.90;;;;;;;7.64;52.81;101688.81;5005810;28;20117;-71
2021/04/25 08:52:10;;;;;;;5.50;2.15;;;;;;;6.75;55.26;101693.91;4993538;28;20064;-71
2021/04/25 08:54:37;;;;;;;4.75;2.10;;;;;;;7.07;54.75;101692.22;5028323;28;20488;-71
2021/04/25 08:57:04;;;;;;;6.68;1.45;;;;;;;7.39;53.42;101688.69;5009516;28;20123;-72
2021/04/25 08:59:30;;;;;;;5.88;1.50;;;;;;;7.59;52.70;101694.22;5012402;28;20470;-72
2021/04/25 09:01:57;;;;;;;5.70;2.05;;;;;;;8.02;50.20;101695.53;5015423;28;20121;-73
2021/04/25 09:04:24;;;;;;;7.97;1.85;;;;;;;7.63;51.50;101696.75;5012848;28;20149;-72
2021/04/25 09:07:01;;;;;;;3.60;1.50;;;;;;;8.04;50.22;101706.81;5012636;28;20579;-73
2021/04/25 09:13:40;;;;;;;3.05;1.80;;;;;;;7.49;54.69;101697.16;5029092;28;20323;-72
2021/04/25 09:16:10;;;;;;;5.10;2.45;;;;;;;6.76;56.80;101703.50;4978602;28;20373;-71
2021/04/25 09:18:37;;;;;;;2.75;1.70;;;;;;;6.22;58.92;101703.13;5025736;28;20053;-73
2021/04/25 09:21:08;;;;;;;5.63;2.33;;;;;;;6.56;58.63;101701.38;5013149;28;20132;-70
2021/04/25 09:23:35;;;;;;;4.90;1.80;;;;;;;6.66;57.90;101706.38;5008332;28;20042;-72
2021/04/25 09:26:07;;;;;;;3.22;1.83;;;;;;;7.02;56.96;101684.47;5015519;28;20053;-72
2021/04/25 09:28:34;;;;;;;5.55;2.03;;;;;;;7.15;55.36;101684.13;4998344;28;20049;-72
2021/04/25 09:31:03;;;;;;;4.45;2.10;;;;;;;7.29;55.12;101692.47;5000033;28;20132;-71
2021/04/25 09:33:49;;;;;;;3.47;1.80;;;;;;;7.22;54.78;101689.16;5023016;28;20081;-72
2021/04/25 09:36:18;;;;;;;4.93;1.42;;;;;;;6.83;54.61;101689.34;5005717;28;20040;-72
2021/04/25 09:38:44;;;;;;;5.32;2.03;;;;;;;6.98;54.86;101687.22;4991794;28;20053;-71
2021/04/25 09:41:26;;;;;;;3.42;1.58;;;;;;;7.33;52.66;101673.13;5012963;28;20052;-71
2021/04/25 09:43:52;;;;;;;4.78;1.80;;;;;;;7.53;51.62;101669.97;5025653;28;20058;-72
2021/04/25 09:46:19;;;;;;;3.42;1.30;;;;;;;7.65;51.05;101666.09;5011134;28;20140;-72
2021/04/25 09:48:47;;;;;;;4.50;1.90;;;;;;;7.85;50.45;101669.84;5010998;28;20053;-72
2021/04/25 09:51:23;;;;;;;7.70;2.03;;;;;;;8.13;50.19;101674.22;5006815;28;20046;-70
2021/04/25 09:53:49;;;;;;;6.80;2.00;;;;;;;8.20;49.53;101667.88;5007925;28;20076;-72
2021/04/25 09:56:18;;;;;;;4.70;1.65;;;;;;;8.72;48.15;101660.91;5001274;28;20380;-72
2021/04/25 09:58:56;;;;;;;3.20;1.45;;;;;;;8.85;47.17;101670.06;4991958;28;20113;-71
2021/04/25 10:01:39;;;;;;;2.55;1.60;;;;;;;8.79;48.07;101657.16;5004116;28;20048;-71
2021/04/25 10:04:27;;;;;;;4.15;1.63;;;;;;;9.63;45.70;101659.28;4984275;28;20080;-73
2021/04/25 10:06:55;;;;;;;2.53;1.50;;;;;;;9.84;45.48;101662.88;4978217;28;20103;-72
2021/04/25 10:09:22;;;;;;;5.50;1.98;;;;;;;10.38;44.27;101661.59;4987468;28;20045;-73
2021/04/25 10:11:50;;;;;;;8.70;1.92;;;;;;;10.16;43.31;101655.47;5004514;28;20065;-71
2021/04/25 10:14:17;;;;;;;4.13;2.08;;;;;;;10.36;43.17;101662.59;5030003;28;20053;-72
2021/04/25 10:16:45;;;;;;;5.90;1.98;;;;;;;10.19;43.11;101660.63;5005299;28;20558;-71
2021/04/25 10:19:13;;;;;;;6.90;1.80;;;;;;;10.26;43.25;101659.47;5013488;28;20501;-71
2021/04/25 10:21:41;;;;;;;6.47;1.98;;;;;;;10.26;43.53;101651.56;5013538;28;20091;-73
2021/04/25 10:24:08;;;;;;;5.72;1.67;;;;;;;10.50;43.07;101656.75;5028071;28;20060;-72
2021/04/25 10:26:39;;;;;;;5.97;1.88;;;;;;;10.93;41.36;101647.00;5010562;28;20500;-72
2021/04/25 10:29:07;;;;;;;8.70;2.40;;;;;;;10.51;40.80;101647.94;5018401;28;20080;-73
2021/04/25 10:31:35;;;;;;;3.25;1.40;;;;;;;10.41;40.98;101647.47;5008734;28;20055;-72
2021/04/25 10:34:06;;;;;;;4.55;2.22;;;;;;;10.30;39.90;101641.78;5012140;28;20055;-72
2021/04/25 10:36:50;;;;;;;5.50;1.60;;;;;;;10.49;39.65;101637.47;5029866;28;20759;-71
2021/04/25 10:39:35;;;;;;;5.00;1.77;;;;;;;10.35;39.11;101629.28;5000957;28;20095;-71
2021/04/25 10:42:25;;;;;;;8.15;1.95;;;;;;;9.85;40.79;101633.03;5004652;28;20076;-74
2021/04/25 10:45:09;;;;;;;4.95;1.83;;;;;;;10.08;40.31;101636.50;5029560;28;20060;-72
2021/04/25 10:47:40;;;;;;;3.95;1.92;;;;;;;10.59;40.50;101627.41;4980318;28;20046;-71
2021/04/25 10:50:13;;;;;;;15.45;3.30;;;;;;;10.70;38.32;101634.81;4995856;28;20052;-72
2021/04/25 10:52:40;;;;;;;5.80;2.05;;;;;;;11.03;37.58;101628.09;5008871;28;20077;-73
2021/04/25 10:55:28;;;;;;;5.78;1.50;;;;;;;10.93;36.53;101624.13;4974680;28;20454;-71
2021/04/25 10:58:00;;;;;;;4.85;1.27;;;;;;;9.89;37.85;101639.03;5027023;28;20523;-73
2021/04/25 11:00:30;;;;;;;4.93;1.20;;;;;;;9.23;38.95;101630.19;5010314;28;20129;-70
2021/04/25 11:03:06;;;;;;;3.00;1.50;;;;;;;9.93;38.17;101627.47;5009416;28;20111;-71
2021/04/25 11:05:36;;;;;;;2.20;1.30;;;;;;;9.71;38.32;101629.22;5025946;28;20064;-72
2021/04/25 11:08:12;;;;;;;3.45;1.30;;;;;;;9.24;39.32;101624.03;5023882;28;20581;-74
2021/04/25 11:10:55;;;;;;;3.75;1.55;;;;;;;9.55;39.51;101623.72;5028775;28;20056;-71
2021/04/25 11:13:45;;;;;;;4.22;1.30;;;;;;;10.39;37.75;101620.34;5025286;28;20061;-72
2021/04/25 11:16:15;;;;;;;4.68;1.17;;;;;;;9.80;38.28;101626.25;5009636;28;20026;-71
2021/04/25 11:18:58;;;;;;;3.28;1.40;;;;;;;9.96;38.34;101624.72;5028869;28;20153;-71
2021/04/25 11:24:03;;;;;;;3.58;1.52;;;;;;;10.68;37.78;101615.63;5011629;28;20652;-71
2021/04/25 11:26:46;;;;;;;3.17;1.30;;;;;;;10.81;36.81;101606.25;5015806;28;20049;-72
2021/04/25 11:29:39;;;;;;;6.25;1.48;;;;;;;10.79;35.62;101606.31;5011723;28;20111;-71
2021/04/25 11:32:05;;;;;;;4.00;1.27;;;;;;;10.66;35.77;101602.50;4994055;28;20092;-72
2021/04/25 11:34:32;;;;;;;3.80;1.20;;;;;;;11.12;34.92;101605.72;5002214;28;20084;-72
2021/04/25 11:37:20;;;;;;;4.43;1.10;;;;;;;11.31;34.99;101613.66;5026861;28;20053;-73
2021/04/25 11:40:02;;;;;;;4.07;1.40;;;;;;;11.30;35.01;101609.28;4999088;28;20141;-75
2021/04/25 11:42:39;;;;;;;3.03;1.17;;;;;;;9.92;34.08;101612.59;5033062;28;20053;-72
2021/04/25 11:45:08;;;;;;;4.80;0.82;;;;;;;10.37;33.84;101601.13;5015565;28;20053;-73